Birsa Munda, India

3:33 PM IST on June 21, 2018 (GMT +0530)
Birsa Munda | | Change Station

Elev 2139 ft 23.32 °N, 85.32 °E | Updated 33 minutes ago

Thunderstorm
Thunderstorm
79 °F
Feels Like 79 °F
N
1
Wind Variable Wind from NE

Today
High -- | Low -- °F
--% Chance of Precip.
Yesterday
High -- | Low -- °F
Precip. -- in
Pressure 29.65 in
Visibility 1.6 miles
Clouds Scattered Clouds 1500 ft
Few 3000 ft
Mostly Cloudy 10000 ft
Dew Point 72 °F
Humidity 78%
Rainfall 0.00 in
Snow Depth Not available.
5:03 AM 6:37 PM
First Quarter, 60% visible
METAR VERC 210930Z 05001KT 2500 -TSRA SCT015 FEW030CB BKN100 26/22 Q1004 NOSIG
Pressure 29.65 in
Visibility 1.6 miles
Clouds Scattered Clouds 1500 ft
Few 3000 ft
Mostly Cloudy 10000 ft
Dew Point 72 °F
Humidity 78%
Rainfall 0.00 in
Snow Depth Not available.
5:03 AM 6:37 PM
First Quarter, 60% visible
METAR VERC 210930Z 05001KT 2500 -TSRA SCT015 FEW030CB BKN100 26/22 Q1004 NOSIG

Get Severe Weather Alerts

Thanks for signing up!

Be on the lookout for a verification email in your inbox.

You'll start receiving the daily forecast at 6 AM.

×

10-Day Weather Forecast

No radar image for this location.
×

Almanac

Astronomy

Jun. 21, 2018 Rise Set
Actual Time
Civil Twilight
Nautical Twilight
Astronomical Twilight
Moon
Length of Visible Light
Length of Day
Tomorrow will be .
, % of the Moon is Illuminated

Today's Extremes

Country Highs Country Lows

Community

WunderPhotos

Category 6

Welcome to Category 6. This is the collective home for Weather Underground's featured writeups by Dr. Jeff Masters (right), Bob Henson (left), Chris Burt, and other regular contributors.

Nearby

Air Quality

  Air Quality AQ Index Pollutant
Not available.

Snow Depth

Station Depth Elevation

Earthquake Activity

City Distance Mag. Time & Date
Minimum magnitude displayed is 2.5.

Coastal Water Temperatures

Place Temperature

Stations

Nearby Weather Stations

Station Location Temp. Windchill Dew Point Humidity Wind Precip. Elev Updated Type